sensor_id;sensor_type;location;lat;lon;timestamp;P1;durP1;ratioP1;P2;durP2;ratioP2
18174;SDS011;9212;50.894;16.714;2023-02-28T00:00:10;13.50;;;6.80;;
18174;SDS011;9212;50.894;16.714;2023-02-28T00:02:38;12.43;;;6.87;;
18174;SDS011;9212;50.894;16.714;2023-02-28T00:05:07;20.73;;;7.97;;
18174;SDS011;9212;50.894;16.714;2023-02-28T00:07:35;14.40;;;8.30;;
18174;SDS011;9212;50.894;16.714;2023-02-28T00:10:03;14.43;;;7.47;;
18174;SDS011;9212;50.894;16.714;2023-02-28T00:12:31;24.80;;;9.20;;
18174;SDS011;9212;50.894;16.714;2023-02-28T00:14:58;22.83;;;9.90;;
18174;SDS011;9212;50.894;16.714;2023-02-28T00:17:27;19.47;;;8.33;;
18174;SDS011;9212;50.894;16.714;2023-02-28T00:19:54;23.57;;;8.40;;
18174;SDS011;9212;50.894;16.714;2023-02-28T00:22:22;18.73;;;9.57;;
18174;SDS011;9212;50.894;16.714;2023-02-28T00:24:49;21.00;;;7.77;;
18174;SDS011;9212;50.894;16.714;2023-02-28T00:27:17;23.60;;;9.27;;
18174;SDS011;9212;50.894;16.714;2023-02-28T00:29:46;21.53;;;8.07;;
18174;SDS011;9212;50.894;16.714;2023-02-28T00:32:13;15.10;;;8.23;;
18174;SDS011;9212;50.894;16.714;2023-02-28T00:34:42;21.90;;;7.80;;
18174;SDS011;9212;50.894;16.714;2023-02-28T00:37:09;17.20;;;8.10;;
18174;SDS011;9212;50.894;16.714;2023-02-28T00:39:38;17.20;;;7.93;;
18174;SDS011;9212;50.894;16.714;2023-02-28T00:42:06;17.17;;;7.73;;
18174;SDS011;9212;50.894;16.714;2023-02-28T00:44:33;16.73;;;7.40;;
18174;SDS011;9212;50.894;16.714;2023-02-28T00:47:01;11.30;;;6.87;;
18174;SDS011;9212;50.894;16.714;2023-02-28T00:49:28;16.37;;;8.10;;
18174;SDS011;9212;50.894;16.714;2023-02-28T00:51:57;16.37;;;7.70;;
18174;SDS011;9212;50.894;16.714;2023-02-28T00:54:24;29.53;;;7.80;;
18174;SDS011;9212;50.894;16.714;2023-02-28T00:56:51;14.07;;;8.00;;
18174;SDS011;9212;50.894;16.714;2023-02-28T00:59:19;19.60;;;8.90;;
18174;SDS011;9212;50.894;16.714;2023-02-28T01:01:46;22.73;;;8.40;;
18174;SDS011;9212;50.894;16.714;2023-02-28T01:04:14;14.63;;;6.87;;
18174;SDS011;9212;50.894;16.714;2023-02-28T01:06:41;14.23;;;8.10;;
18174;SDS011;9212;50.894;16.714;2023-02-28T01:09:10;17.63;;;8.17;;
18174;SDS011;9212;50.894;16.714;2023-02-28T01:11:38;15.93;;;7.63;;
18174;SDS011;9212;50.894;16.714;2023-02-28T01:14:06;15.03;;;7.33;;
18174;SDS011;9212;50.894;16.714;2023-02-28T01:16:34;22.37;;;10.03;;
18174;SDS011;9212;50.894;16.714;2023-02-28T01:19:01;20.27;;;8.37;;
18174;SDS011;9212;50.894;16.714;2023-02-28T01:21:28;17.00;;;9.07;;
18174;SDS011;9212;50.894;16.714;2023-02-28T01:23:56;22.80;;;9.63;;
18174;SDS011;9212;50.894;16.714;2023-02-28T01:26:24;15.53;;;7.77;;
18174;SDS011;9212;50.894;16.714;2023-02-28T01:28:52;19.00;;;7.53;;
18174;SDS011;9212;50.894;16.714;2023-02-28T01:31:19;16.30;;;8.87;;
18174;SDS011;9212;50.894;16.714;2023-02-28T01:33:47;21.87;;;9.40;;
18174;SDS011;9212;50.894;16.714;2023-02-28T01:36:15;18.80;;;8.03;;
18174;SDS011;9212;50.894;16.714;2023-02-28T01:38:44;26.73;;;9.83;;
18174;SDS011;9212;50.894;16.714;2023-02-28T01:41:14;21.43;;;9.77;;
18174;SDS011;9212;50.894;16.714;2023-02-28T01:43:58;22.10;;;7.93;;
18174;SDS011;9212;50.894;16.714;2023-02-28T01:46:29;13.43;;;7.60;;
18174;SDS011;9212;50.894;16.714;2023-02-28T01:48:59;16.17;;;7.80;;
18174;SDS011;9212;50.894;16.714;2023-02-28T01:51:34;20.23;;;8.43;;
18174;SDS011;9212;50.894;16.714;2023-02-28T01:54:12;18.37;;;8.57;;
18174;SDS011;9212;50.894;16.714;2023-02-28T01:56:43;20.50;;;8.70;;
18174;SDS011;9212;50.894;16.714;2023-02-28T01:59:17;15.57;;;7.00;;
18174;SDS011;9212;50.894;16.714;2023-02-28T02:01:48;19.77;;;8.60;;
18174;SDS011;9212;50.894;16.714;2023-02-28T02:04:15;22.37;;;8.30;;
18174;SDS011;9212;50.894;16.714;2023-02-28T02:06:44;14.87;;;8.20;;
18174;SDS011;9212;50.894;16.714;2023-02-28T02:09:13;19.17;;;7.60;;
18174;SDS011;9212;50.894;16.714;2023-02-28T02:11:40;21.47;;;9.30;;
18174;SDS011;9212;50.894;16.714;2023-02-28T02:14:11;19.77;;;9.03;;
18174;SDS011;9212;50.894;16.714;2023-02-28T02:16:44;22.83;;;8.77;;
18174;SDS011;9212;50.894;16.714;2023-02-28T02:19:18;22.03;;;8.83;;
18174;SDS011;9212;50.894;16.714;2023-02-28T02:22:07;22.27;;;10.33;;
18174;SDS011;9212;50.894;16.714;2023-02-28T02:24:52;17.67;;;7.53;;
18174;SDS011;9212;50.894;16.714;2023-02-28T02:27:27;17.43;;;8.03;;
18174;SDS011;9212;50.894;16.714;2023-02-28T02:30:05;16.93;;;8.10;;
18174;SDS011;9212;50.894;16.714;2023-02-28T02:32:46;18.00;;;7.93;;
18174;SDS011;9212;50.894;16.714;2023-02-28T02:35:18;18.00;;;8.73;;
18174;SDS011;9212;50.894;16.714;2023-02-28T02:37:48;16.03;;;8.33;;
18174;SDS011;9212;50.894;16.714;2023-02-28T02:40:17;14.77;;;7.77;;
18174;SDS011;9212;50.894;16.714;2023-02-28T02:42:48;13.70;;;7.47;;
18174;SDS011;9212;50.894;16.714;2023-02-28T02:45:17;17.23;;;8.03;;
18174;SDS011;9212;50.894;16.714;2023-02-28T02:47:46;19.27;;;8.13;;
18174;SDS011;9212;50.894;16.714;2023-02-28T02:50:15;14.33;;;6.50;;
18174;SDS011;9212;50.894;16.714;2023-02-28T02:52:46;17.70;;;6.53;;
18174;SDS011;9212;50.894;16.714;2023-02-28T02:55:16;14.93;;;6.77;;
18174;SDS011;9212;50.894;16.714;2023-02-28T02:57:45;17.07;;;7.40;;
18174;SDS011;9212;50.894;16.714;2023-02-28T03:00:14;20.33;;;7.13;;
18174;SDS011;9212;50.894;16.714;2023-02-28T03:02:42;16.60;;;6.73;;
18174;SDS011;9212;50.894;16.714;2023-02-28T03:05:12;11.53;;;6.53;;
18174;SDS011;9212;50.894;16.714;2023-02-28T03:07:42;13.63;;;6.50;;
18174;SDS011;9212;50.894;16.714;2023-02-28T03:10:27;15.13;;;7.10;;
18174;SDS011;9212;50.894;16.714;2023-02-28T03:12:58;17.43;;;8.40;;
18174;SDS011;9212;50.894;16.714;2023-02-28T03:15:29;15.60;;;7.03;;
18174;SDS011;9212;50.894;16.714;2023-02-28T03:18:01;12.17;;;6.73;;
18174;SDS011;9212;50.894;16.714;2023-02-28T03:20:35;15.60;;;6.30;;
18174;SDS011;9212;50.894;16.714;2023-02-28T03:23:09;12.40;;;6.20;;
18174;SDS011;9212;50.894;16.714;2023-02-28T03:25:40;18.13;;;7.23;;
18174;SDS011;9212;50.894;16.714;2023-02-28T03:28:22;14.30;;;6.57;;
18174;SDS011;9212;50.894;16.714;2023-02-28T03:30:58;16.10;;;7.03;;
18174;SDS011;9212;50.894;16.714;2023-02-28T03:33:30;15.57;;;7.17;;
18174;SDS011;9212;50.894;16.714;2023-02-28T03:36:02;19.50;;;7.43;;
18174;SDS011;9212;50.894;16.714;2023-02-28T03:38:35;13.27;;;5.17;;
18174;SDS011;9212;50.894;16.714;2023-02-28T03:41:08;12.27;;;6.43;;
18174;SDS011;9212;50.894;16.714;2023-02-28T03:43:41;14.93;;;7.23;;
18174;SDS011;9212;50.894;16.714;2023-02-28T03:46:12;16.77;;;6.50;;
18174;SDS011;9212;50.894;16.714;2023-02-28T03:48:45;11.17;;;5.70;;
18174;SDS011;9212;50.894;16.714;2023-02-28T03:51:17;12.37;;;5.53;;
18174;SDS011;9212;50.894;16.714;2023-02-28T03:53:50;13.77;;;6.83;;
18174;SDS011;9212;50.894;16.714;2023-02-28T03:56:20;12.20;;;6.47;;
18174;SDS011;9212;50.894;16.714;2023-02-28T03:58:55;9.37;;;5.57;;
18174;SDS011;9212;50.894;16.714;2023-02-28T04:01:27;11.70;;;5.73;;
18174;SDS011;9212;50.894;16.714;2023-02-28T04:03:58;10.27;;;5.90;;
18174;SDS011;9212;50.894;16.714;2023-02-28T04:06:25;12.37;;;6.00;;
18174;SDS011;9212;50.894;16.714;2023-02-28T04:08:52;12.20;;;5.57;;
18174;SDS011;9212;50.894;16.714;2023-02-28T04:11:22;13.00;;;6.60;;
18174;SDS011;9212;50.894;16.714;2023-02-28T04:13:52;15.00;;;6.67;;
18174;SDS011;9212;50.894;16.714;2023-02-28T04:16:19;10.97;;;6.40;;
18174;SDS011;9212;50.894;16.714;2023-02-28T04:18:46;16.57;;;7.07;;
18174;SDS011;9212;50.894;16.714;2023-02-28T04:21:13;7.63;;;5.83;;
18174;SDS011;9212;50.894;16.714;2023-02-28T04:23:40;13.37;;;5.50;;
18174;SDS011;9212;50.894;16.714;2023-02-28T04:26:07;12.73;;;6.13;;
18174;SDS011;9212;50.894;16.714;2023-02-28T04:28:36;13.63;;;5.83;;
18174;SDS011;9212;50.894;16.714;2023-02-28T04:31:04;9.47;;;5.97;;
18174;SDS011;9212;50.894;16.714;2023-02-28T04:33:32;12.07;;;6.83;;
18174;SDS011;9212;50.894;16.714;2023-02-28T04:36:00;13.90;;;6.70;;
18174;SDS011;9212;50.894;16.714;2023-02-28T04:38:28;8.43;;;5.07;;
18174;SDS011;9212;50.894;16.714;2023-02-28T04:40:56;12.10;;;5.87;;
18174;SDS011;9212;50.894;16.714;2023-02-28T04:43:24;17.60;;;6.43;;
18174;SDS011;9212;50.894;16.714;2023-02-28T04:45:54;10.03;;;5.60;;
18174;SDS011;9212;50.894;16.714;2023-02-28T04:48:22;9.03;;;4.90;;
18174;SDS011;9212;50.894;16.714;2023-02-28T04:50:50;11.77;;;6.47;;
18174;SDS011;9212;50.894;16.714;2023-02-28T04:53:17;13.60;;;6.07;;
18174;SDS011;9212;50.894;16.714;2023-02-28T04:55:44;15.27;;;5.80;;
18174;SDS011;9212;50.894;16.714;2023-02-28T04:58:12;9.60;;;5.47;;
18174;SDS011;9212;50.894;16.714;2023-02-28T05:00:39;12.73;;;5.47;;
18174;SDS011;9212;50.894;16.714;2023-02-28T05:03:08;13.33;;;4.90;;
18174;SDS011;9212;50.894;16.714;2023-02-28T05:05:35;8.97;;;5.27;;
18174;SDS011;9212;50.894;16.714;2023-02-28T05:08:02;8.57;;;4.93;;
18174;SDS011;9212;50.894;16.714;2023-02-28T05:10:30;8.77;;;5.27;;
18174;SDS011;9212;50.894;16.714;2023-02-28T05:12:57;11.17;;;5.57;;
18174;SDS011;9212;50.894;16.714;2023-02-28T05:15:24;9.77;;;5.27;;
18174;SDS011;9212;50.894;16.714;2023-02-28T05:17:52;11.03;;;5.93;;
18174;SDS011;9212;50.894;16.714;2023-02-28T05:20:20;10.63;;;5.70;;
18174;SDS011;9212;50.894;16.714;2023-02-28T05:22:49;10.20;;;5.23;;
18174;SDS011;9212;50.894;16.714;2023-02-28T05:25:18;9.50;;;5.33;;
18174;SDS011;9212;50.894;16.714;2023-02-28T05:27:46;7.40;;;4.90;;
18174;SDS011;9212;50.894;16.714;2023-02-28T05:30:14;10.27;;;4.63;;
18174;SDS011;9212;50.894;16.714;2023-02-28T05:32:41;8.47;;;4.47;;
18174;SDS011;9212;50.894;16.714;2023-02-28T05:35:09;14.60;;;4.87;;
18174;SDS011;9212;50.894;16.714;2023-02-28T05:37:38;9.77;;;4.90;;
18174;SDS011;9212;50.894;16.714;2023-02-28T05:40:06;12.50;;;5.37;;
18174;SDS011;9212;50.894;16.714;2023-02-28T05:42:35;10.80;;;5.70;;
18174;SDS011;9212;50.894;16.714;2023-02-28T05:45:02;10.63;;;5.37;;
18174;SDS011;9212;50.894;16.714;2023-02-28T05:47:30;9.40;;;5.27;;
18174;SDS011;9212;50.894;16.714;2023-02-28T05:49:57;11.70;;;6.47;;
18174;SDS011;9212;50.894;16.714;2023-02-28T05:52:25;9.73;;;6.03;;
18174;SDS011;9212;50.894;16.714;2023-02-28T05:54:54;11.70;;;5.23;;
18174;SDS011;9212;50.894;16.714;2023-02-28T05:57:21;9.53;;;5.10;;
18174;SDS011;9212;50.894;16.714;2023-02-28T05:59:48;10.17;;;5.03;;
18174;SDS011;9212;50.894;16.714;2023-02-28T06:02:16;12.97;;;5.40;;
18174;SDS011;9212;50.894;16.714;2023-02-28T06:04:44;13.73;;;6.17;;
18174;SDS011;9212;50.894;16.714;2023-02-28T06:07:11;10.90;;;5.30;;
18174;SDS011;9212;50.894;16.714;2023-02-28T06:09:38;6.73;;;5.03;;
18174;SDS011;9212;50.894;16.714;2023-02-28T06:12:07;12.60;;;6.13;;
18174;SDS011;9212;50.894;16.714;2023-02-28T06:14:35;8.67;;;4.97;;
18174;SDS011;9212;50.894;16.714;2023-02-28T06:17:03;16.77;;;6.40;;
18174;SDS011;9212;50.894;16.714;2023-02-28T06:19:32;15.17;;;6.20;;
18174;SDS011;9212;50.894;16.714;2023-02-28T06:21:59;11.47;;;5.30;;
18174;SDS011;9212;50.894;16.714;2023-02-28T06:24:26;12.73;;;6.40;;
18174;SDS011;9212;50.894;16.714;2023-02-28T06:26:55;13.20;;;5.73;;
18174;SDS011;9212;50.894;16.714;2023-02-28T06:29:25;8.60;;;5.63;;
18174;SDS011;9212;50.894;16.714;2023-02-28T06:31:52;13.20;;;5.83;;
18174;SDS011;9212;50.894;16.714;2023-02-28T06:34:19;13.80;;;6.33;;
18174;SDS011;9212;50.894;16.714;2023-02-28T06:36:46;17.23;;;6.97;;
18174;SDS011;9212;50.894;16.714;2023-02-28T06:39:17;11.70;;;5.87;;
18174;SDS011;9212;50.894;16.714;2023-02-28T06:41:44;12.77;;;5.47;;
18174;SDS011;9212;50.894;16.714;2023-02-28T06:44:13;12.03;;;6.10;;
18174;SDS011;9212;50.894;16.714;2023-02-28T06:46:44;9.10;;;5.23;;
18174;SDS011;9212;50.894;16.714;2023-02-28T06:49:11;11.73;;;6.33;;
18174;SDS011;9212;50.894;16.714;2023-02-28T06:51:39;11.50;;;6.50;;
18174;SDS011;9212;50.894;16.714;2023-02-28T06:54:07;9.50;;;6.27;;
18174;SDS011;9212;50.894;16.714;2023-02-28T06:56:34;11.30;;;6.00;;
18174;SDS011;9212;50.894;16.714;2023-02-28T06:59:02;10.83;;;6.73;;
18174;SDS011;9212;50.894;16.714;2023-02-28T07:01:29;12.47;;;6.30;;
18174;SDS011;9212;50.894;16.714;2023-02-28T07:03:59;14.80;;;6.37;;
18174;SDS011;9212;50.894;16.714;2023-02-28T07:06:26;12.47;;;6.67;;
18174;SDS011;9212;50.894;16.714;2023-02-28T07:08:54;13.93;;;6.23;;
18174;SDS011;9212;50.894;16.714;2023-02-28T07:11:22;13.50;;;6.67;;
18174;SDS011;9212;50.894;16.714;2023-02-28T07:13:50;10.03;;;6.73;;
18174;SDS011;9212;50.894;16.714;2023-02-28T07:16:17;11.63;;;6.90;;
18174;SDS011;9212;50.894;16.714;2023-02-28T07:18:44;13.10;;;7.50;;
18174;SDS011;9212;50.894;16.714;2023-02-28T07:21:13;8.80;;;5.97;;
18174;SDS011;9212;50.894;16.714;2023-02-28T07:23:40;10.40;;;5.77;;
18174;SDS011;9212;50.894;16.714;2023-02-28T07:26:09;17.77;;;7.40;;
18174;SDS011;9212;50.894;16.714;2023-02-28T07:28:39;32.33;;;14.37;;
18174;SDS011;9212;50.894;16.714;2023-02-28T07:31:07;34.27;;;14.50;;
18174;SDS011;9212;50.894;16.714;2023-02-28T07:33:35;24.93;;;11.60;;
18174;SDS011;9212;50.894;16.714;2023-02-28T07:36:03;29.27;;;13.23;;
18174;SDS011;9212;50.894;16.714;2023-02-28T07:38:34;26.70;;;12.80;;
18174;SDS011;9212;50.894;16.714;2023-02-28T07:41:01;25.60;;;12.77;;
18174;SDS011;9212;50.894;16.714;2023-02-28T07:43:30;19.27;;;9.70;;
18174;SDS011;9212;50.894;16.714;2023-02-28T07:46:00;11.13;;;6.70;;
18174;SDS011;9212;50.894;16.714;2023-02-28T07:48:28;9.10;;;6.17;;
18174;SDS011;9212;50.894;16.714;2023-02-28T07:50:55;8.07;;;5.00;;
18174;SDS011;9212;50.894;16.714;2023-02-28T07:53:22;7.90;;;5.17;;
18174;SDS011;9212;50.894;16.714;2023-02-28T07:55:51;8.13;;;5.37;;
18174;SDS011;9212;50.894;16.714;2023-02-28T07:58:21;5.50;;;4.33;;
18174;SDS011;9212;50.894;16.714;2023-02-28T08:00:48;6.13;;;5.23;;
18174;SDS011;9212;50.894;16.714;2023-02-28T08:03:16;8.30;;;4.83;;
18174;SDS011;9212;50.894;16.714;2023-02-28T08:05:43;6.00;;;4.23;;
18174;SDS011;9212;50.894;16.714;2023-02-28T08:08:10;7.93;;;4.83;;
18174;SDS011;9212;50.894;16.714;2023-02-28T08:10:38;8.43;;;5.37;;
18174;SDS011;9212;50.894;16.714;2023-02-28T08:13:06;6.43;;;5.27;;
18174;SDS011;9212;50.894;16.714;2023-02-28T08:15:34;9.17;;;5.03;;
18174;SDS011;9212;50.894;16.714;2023-02-28T08:18:01;8.70;;;4.87;;
18174;SDS011;9212;50.894;16.714;2023-02-28T08:20:28;7.70;;;5.63;;
18174;SDS011;9212;50.894;16.714;2023-02-28T08:22:55;8.93;;;5.37;;
18174;SDS011;9212;50.894;16.714;2023-02-28T08:25:22;7.00;;;4.90;;
18174;SDS011;9212;50.894;16.714;2023-02-28T08:27:50;5.37;;;4.00;;
18174;SDS011;9212;50.894;16.714;2023-02-28T08:30:19;7.57;;;5.50;;
18174;SDS011;9212;50.894;16.714;2023-02-28T08:32:46;8.00;;;4.83;;
18174;SDS011;9212;50.894;16.714;2023-02-28T08:35:13;7.80;;;5.10;;
18174;SDS011;9212;50.894;16.714;2023-02-28T08:37:41;5.03;;;4.23;;
18174;SDS011;9212;50.894;16.714;2023-02-28T08:40:12;6.33;;;4.93;;
18174;SDS011;9212;50.894;16.714;2023-02-28T08:42:43;6.20;;;4.30;;
18174;SDS011;9212;50.894;16.714;2023-02-28T08:45:10;8.30;;;4.93;;
18174;SDS011;9212;50.894;16.714;2023-02-28T08:47:39;5.80;;;4.60;;
18174;SDS011;9212;50.894;16.714;2023-02-28T08:50:06;9.13;;;4.70;;
18174;SDS011;9212;50.894;16.714;2023-02-28T08:52:34;6.80;;;4.63;;
18174;SDS011;9212;50.894;16.714;2023-02-28T08:55:01;4.93;;;3.30;;
18174;SDS011;9212;50.894;16.714;2023-02-28T08:57:28;4.10;;;3.70;;
18174;SDS011;9212;50.894;16.714;2023-02-28T08:59:55;6.57;;;4.70;;
18174;SDS011;9212;50.894;16.714;2023-02-28T09:02:22;9.37;;;4.93;;
18174;SDS011;9212;50.894;16.714;2023-02-28T09:04:50;7.70;;;4.37;;
18174;SDS011;9212;50.894;16.714;2023-02-28T09:07:17;5.87;;;4.47;;
18174;SDS011;9212;50.894;16.714;2023-02-28T09:09:45;4.23;;;3.80;;
18174;SDS011;9212;50.894;16.714;2023-02-28T09:12:19;9.70;;;4.57;;
18174;SDS011;9212;50.894;16.714;2023-02-28T09:14:47;5.63;;;5.00;;
18174;SDS011;9212;50.894;16.714;2023-02-28T09:17:14;6.47;;;4.70;;
18174;SDS011;9212;50.894;16.714;2023-02-28T09:19:41;10.37;;;4.93;;
18174;SDS011;9212;50.894;16.714;2023-02-28T09:22:10;7.60;;;4.30;;
18174;SDS011;9212;50.894;16.714;2023-02-28T09:24:37;7.57;;;4.47;;
18174;SDS011;9212;50.894;16.714;2023-02-28T09:27:05;6.60;;;4.90;;
18174;SDS011;9212;50.894;16.714;2023-02-28T09:29:32;5.53;;;4.57;;
18174;SDS011;9212;50.894;16.714;2023-02-28T09:32:01;6.80;;;4.83;;
18174;SDS011;9212;50.894;16.714;2023-02-28T09:34:30;7.97;;;5.07;;
18174;SDS011;9212;50.894;16.714;2023-02-28T09:36:57;7.13;;;4.73;;
18174;SDS011;9212;50.894;16.714;2023-02-28T09:39:26;7.73;;;4.73;;
18174;SDS011;9212;50.894;16.714;2023-02-28T09:41:54;8.43;;;5.40;;
18174;SDS011;9212;50.894;16.714;2023-02-28T09:44:24;12.13;;;6.00;;
18174;SDS011;9212;50.894;16.714;2023-02-28T09:46:57;8.17;;;5.50;;
18174;SDS011;9212;50.894;16.714;2023-02-28T09:49:28;9.97;;;5.67;;
18174;SDS011;9212;50.894;16.714;2023-02-28T09:52:05;9.37;;;5.50;;
18174;SDS011;9212;50.894;16.714;2023-02-28T09:54:36;6.07;;;4.70;;
18174;SDS011;9212;50.894;16.714;2023-02-28T09:57:08;10.17;;;5.50;;
18174;SDS011;9212;50.894;16.714;2023-02-28T09:59:47;3.63;;;3.30;;
18174;SDS011;9212;50.894;16.714;2023-02-28T10:02:24;10.97;;;5.60;;
18174;SDS011;9212;50.894;16.714;2023-02-28T10:05:24;9.37;;;5.90;;
18174;SDS011;9212;50.894;16.714;2023-02-28T10:07:58;6.40;;;4.87;;
18174;SDS011;9212;50.894;16.714;2023-02-28T10:10:32;10.73;;;5.03;;
18174;SDS011;9212;50.894;16.714;2023-02-28T10:13:05;9.73;;;5.70;;
18174;SDS011;9212;50.894;16.714;2023-02-28T10:15:39;11.27;;;5.30;;
18174;SDS011;9212;50.894;16.714;2023-02-28T10:18:11;7.87;;;5.20;;
18174;SDS011;9212;50.894;16.714;2023-02-28T10:20:41;9.37;;;4.90;;
18174;SDS011;9212;50.894;16.714;2023-02-28T10:23:11;8.47;;;5.37;;
18174;SDS011;9212;50.894;16.714;2023-02-28T10:25:46;8.27;;;5.37;;
18174;SDS011;9212;50.894;16.714;2023-02-28T10:28:19;10.37;;;6.07;;
18174;SDS011;9212;50.894;16.714;2023-02-28T10:30:47;8.57;;;5.43;;
18174;SDS011;9212;50.894;16.714;2023-02-28T10:33:20;8.03;;;5.97;;
18174;SDS011;9212;50.894;16.714;2023-02-28T10:35:49;9.80;;;5.33;;
18174;SDS011;9212;50.894;16.714;2023-02-28T10:38:17;7.67;;;5.07;;
18174;SDS011;9212;50.894;16.714;2023-02-28T10:40:47;12.50;;;5.77;;
18174;SDS011;9212;50.894;16.714;2023-02-28T10:43:19;8.87;;;4.87;;
18174;SDS011;9212;50.894;16.714;2023-02-28T10:45:55;7.87;;;5.10;;
18174;SDS011;9212;50.894;16.714;2023-02-28T10:48:27;11.23;;;5.77;;
18174;SDS011;9212;50.894;16.714;2023-02-28T10:50:58;7.30;;;4.97;;
18174;SDS011;9212;50.894;16.714;2023-02-28T10:53:30;9.50;;;5.50;;
18174;SDS011;9212;50.894;16.714;2023-02-28T10:56:05;8.77;;;5.67;;
18174;SDS011;9212;50.894;16.714;2023-02-28T10:58:49;10.20;;;6.00;;
18174;SDS011;9212;50.894;16.714;2023-02-28T11:01:19;11.00;;;6.07;;
18174;SDS011;9212;50.894;16.714;2023-02-28T11:03:48;5.90;;;4.30;;
18174;SDS011;9212;50.894;16.714;2023-02-28T11:06:17;10.83;;;6.37;;
18174;SDS011;9212;50.894;16.714;2023-02-28T11:08:46;8.57;;;5.47;;
18174;SDS011;9212;50.894;16.714;2023-02-28T11:11:16;11.20;;;6.30;;
18174;SDS011;9212;50.894;16.714;2023-02-28T11:13:44;11.87;;;6.67;;
18174;SDS011;9212;50.894;16.714;2023-02-28T11:16:13;13.23;;;7.07;;
18174;SDS011;9212;50.894;16.714;2023-02-28T11:18:42;13.47;;;6.20;;
18174;SDS011;9212;50.894;16.714;2023-02-28T11:21:19;12.87;;;7.43;;
18174;SDS011;9212;50.894;16.714;2023-02-28T11:23:49;11.00;;;6.47;;
18174;SDS011;9212;50.894;16.714;2023-02-28T11:26:38;10.10;;;6.23;;
18174;SDS011;9212;50.894;16.714;2023-02-28T11:29:12;11.60;;;6.57;;
18174;SDS011;9212;50.894;16.714;2023-02-28T11:31:49;9.33;;;5.20;;
18174;SDS011;9212;50.894;16.714;2023-02-28T11:34:29;9.90;;;5.77;;
18174;SDS011;9212;50.894;16.714;2023-02-28T11:36:57;9.93;;;6.90;;
18174;SDS011;9212;50.894;16.714;2023-02-28T11:39:25;11.87;;;6.53;;
18174;SDS011;9212;50.894;16.714;2023-02-28T11:41:57;10.97;;;5.07;;
18174;SDS011;9212;50.894;16.714;2023-02-28T11:44:41;8.73;;;5.90;;
18174;SDS011;9212;50.894;16.714;2023-02-28T11:47:21;15.70;;;7.20;;
18174;SDS011;9212;50.894;16.714;2023-02-28T11:49:59;15.27;;;6.83;;
18174;SDS011;9212;50.894;16.714;2023-02-28T11:52:39;8.97;;;5.43;;
18174;SDS011;9212;50.894;16.714;2023-02-28T11:55:14;9.97;;;6.60;;
18174;SDS011;9212;50.894;16.714;2023-02-28T11:57:56;12.20;;;7.20;;
18174;SDS011;9212;50.894;16.714;2023-02-28T12:00:39;9.40;;;6.33;;
18174;SDS011;9212;50.894;16.714;2023-02-28T12:03:17;14.00;;;7.40;;
18174;SDS011;9212;50.894;16.714;2023-02-28T12:05:55;9.00;;;6.00;;
18174;SDS011;9212;50.894;16.714;2023-02-28T12:08:39;13.33;;;6.33;;
18174;SDS011;9212;50.894;16.714;2023-02-28T12:11:14;11.03;;;7.20;;
18174;SDS011;9212;50.894;16.714;2023-02-28T12:13:52;11.97;;;6.53;;
18174;SDS011;9212;50.894;16.714;2023-02-28T12:16:36;14.97;;;7.50;;
18174;SDS011;9212;50.894;16.714;2023-02-28T12:19:15;13.00;;;6.80;;
18174;SDS011;9212;50.894;16.714;2023-02-28T12:21:53;10.07;;;6.63;;
18174;SDS011;9212;50.894;16.714;2023-02-28T12:24:45;12.67;;;7.60;;
18174;SDS011;9212;50.894;16.714;2023-02-28T12:27:31;15.47;;;9.03;;
18174;SDS011;9212;50.894;16.714;2023-02-28T12:30:04;17.13;;;7.53;;
18174;SDS011;9212;50.894;16.714;2023-02-28T12:32:40;11.83;;;7.40;;
18174;SDS011;9212;50.894;16.714;2023-02-28T12:35:11;11.70;;;7.73;;
18174;SDS011;9212;50.894;16.714;2023-02-28T12:37:41;14.27;;;8.53;;
18174;SDS011;9212;50.894;16.714;2023-02-28T12:40:14;14.83;;;8.37;;
18174;SDS011;9212;50.894;16.714;2023-02-28T12:42:45;10.97;;;7.37;;
18174;SDS011;9212;50.894;16.714;2023-02-28T12:45:18;10.87;;;7.60;;
18174;SDS011;9212;50.894;16.714;2023-02-28T12:47:49;10.07;;;6.43;;
18174;SDS011;9212;50.894;16.714;2023-02-28T12:50:22;10.73;;;7.07;;
18174;SDS011;9212;50.894;16.714;2023-02-28T12:52:53;15.10;;;7.23;;
18174;SDS011;9212;50.894;16.714;2023-02-28T12:55:27;11.63;;;7.30;;
18174;SDS011;9212;50.894;16.714;2023-02-28T12:58:02;13.93;;;7.50;;
18174;SDS011;9212;50.894;16.714;2023-02-28T13:00:42;15.87;;;8.90;;
18174;SDS011;9212;50.894;16.714;2023-02-28T13:03:35;13.33;;;7.40;;
18174;SDS011;9212;50.894;16.714;2023-02-28T13:09:24;13.77;;;8.20;;
18174;SDS011;9212;50.894;16.714;2023-02-28T13:11:52;18.93;;;8.50;;
18174;SDS011;9212;50.894;16.714;2023-02-28T13:14:24;17.27;;;8.17;;
18174;SDS011;9212;50.894;16.714;2023-02-28T13:17:01;14.73;;;8.57;;
18174;SDS011;9212;50.894;16.714;2023-02-28T13:19:36;11.80;;;7.80;;
18174;SDS011;9212;50.894;16.714;2023-02-28T13:22:05;14.47;;;7.43;;
18174;SDS011;9212;50.894;16.714;2023-02-28T13:24:44;10.63;;;6.90;;
18174;SDS011;9212;50.894;16.714;2023-02-28T13:33:23;14.33;;;8.20;;
18174;SDS011;9212;50.894;16.714;2023-02-28T13:36:09;15.33;;;8.33;;
18174;SDS011;9212;50.894;16.714;2023-02-28T13:38:50;17.10;;;9.10;;
18174;SDS011;9212;50.894;16.714;2023-02-28T13:44:10;15.30;;;7.23;;
18174;SDS011;9212;50.894;16.714;2023-02-28T13:49:52;13.40;;;8.00;;
18174;SDS011;9212;50.894;16.714;2023-02-28T13:52:20;14.33;;;8.40;;
18174;SDS011;9212;50.894;16.714;2023-02-28T13:54:55;16.13;;;7.73;;
18174;SDS011;9212;50.894;16.714;2023-02-28T13:57:44;16.03;;;8.70;;
18174;SDS011;9212;50.894;16.714;2023-02-28T14:00:28;15.87;;;8.00;;
18174;SDS011;9212;50.894;16.714;2023-02-28T14:03:11;15.43;;;8.03;;
18174;SDS011;9212;50.894;16.714;2023-02-28T14:08:46;16.03;;;9.10;;
18174;SDS011;9212;50.894;16.714;2023-02-28T14:11:24;13.97;;;7.80;;
18174;SDS011;9212;50.894;16.714;2023-02-28T14:13:53;14.33;;;7.33;;
18174;SDS011;9212;50.894;16.714;2023-02-28T14:16:20;16.20;;;8.67;;
18174;SDS011;9212;50.894;16.714;2023-02-28T14:18:51;13.17;;;7.63;;
18174;SDS011;9212;50.894;16.714;2023-02-28T14:21:26;14.77;;;8.23;;
18174;SDS011;9212;50.894;16.714;2023-02-28T14:26:56;13.20;;;7.63;;
18174;SDS011;9212;50.894;16.714;2023-02-28T14:29:36;18.67;;;8.57;;
18174;SDS011;9212;50.894;16.714;2023-02-28T14:32:22;18.20;;;9.23;;
18174;SDS011;9212;50.894;16.714;2023-02-28T14:34:58;14.33;;;7.43;;
18174;SDS011;9212;50.894;16.714;2023-02-28T14:37:33;18.60;;;8.77;;
18174;SDS011;9212;50.894;16.714;2023-02-28T14:40:11;13.53;;;7.50;;
18174;SDS011;9212;50.894;16.714;2023-02-28T14:42:45;13.63;;;7.30;;
18174;SDS011;9212;50.894;16.714;2023-02-28T14:45:17;22.27;;;10.50;;
18174;SDS011;9212;50.894;16.714;2023-02-28T14:47:46;21.70;;;9.93;;
18174;SDS011;9212;50.894;16.714;2023-02-28T14:50:18;13.10;;;7.87;;
18174;SDS011;9212;50.894;16.714;2023-02-28T14:52:50;15.50;;;7.73;;
18174;SDS011;9212;50.894;16.714;2023-02-28T14:55:20;18.60;;;7.60;;
18174;SDS011;9212;50.894;16.714;2023-02-28T14:57:53;15.40;;;8.57;;
18174;SDS011;9212;50.894;16.714;2023-02-28T15:00:24;13.47;;;7.23;;
18174;SDS011;9212;50.894;16.714;2023-02-28T15:02:51;12.40;;;7.83;;
18174;SDS011;9212;50.894;16.714;2023-02-28T15:05:23;16.27;;;8.40;;
18174;SDS011;9212;50.894;16.714;2023-02-28T15:08:10;17.33;;;8.63;;
18174;SDS011;9212;50.894;16.714;2023-02-28T15:10:39;15.93;;;9.13;;
18174;SDS011;9212;50.894;16.714;2023-02-28T15:13:11;15.73;;;9.10;;
18174;SDS011;9212;50.894;16.714;2023-02-28T15:15:41;16.63;;;8.57;;
18174;SDS011;9212;50.894;16.714;2023-02-28T15:18:14;17.53;;;9.00;;
18174;SDS011;9212;50.894;16.714;2023-02-28T15:20:47;17.33;;;8.50;;